sensor_id;sensor_type;location;lat;lon;timestamp;temperature;humidity
612;DHT22;293;53.888;11.464;2022-12-18T00:02:24;-4.80;99.90
612;DHT22;293;53.888;11.464;2022-12-18T00:04:51;-4.80;99.90
612;DHT22;293;53.888;11.464;2022-12-18T00:07:18;-4.90;99.90
612;DHT22;293;53.888;11.464;2022-12-18T00:09:47;-4.90;99.90
612;DHT22;293;53.888;11.464;2022-12-18T00:12:13;-4.90;99.90
612;DHT22;293;53.888;11.464;2022-12-18T00:14:40;-4.90;99.90
612;DHT22;293;53.888;11.464;2022-12-18T00:17:07;-5.00;99.90
612;DHT22;293;53.888;11.464;2022-12-18T00:19:34;-4.90;99.90
612;DHT22;293;53.888;11.464;2022-12-18T00:22:01;-4.90;99.90
612;DHT22;293;53.888;11.464;2022-12-18T00:24:28;-4.90;99.90
612;DHT22;293;53.888;11.464;2022-12-18T00:26:56;-4.90;99.90
612;DHT22;293;53.888;11.464;2022-12-18T00:29:23;-4.80;99.90
612;DHT22;293;53.888;11.464;2022-12-18T00:31:50;-4.90;99.90
612;DHT22;293;53.888;11.464;2022-12-18T00:34:17;-4.80;99.90
612;DHT22;293;53.888;11.464;2022-12-18T00:36:44;-4.90;99.90
612;DHT22;293;53.888;11.464;2022-12-18T00:39:11;-4.90;99.90
612;DHT22;293;53.888;11.464;2022-12-18T00:41:38;-4.80;99.90
612;DHT22;293;53.888;11.464;2022-12-18T00:44:26;-4.80;99.90
612;DHT22;293;53.888;11.464;2022-12-18T00:46:55;-4.80;99.90
612;DHT22;293;53.888;11.464;2022-12-18T00:49:22;-4.80;99.90
612;DHT22;293;53.888;11.464;2022-12-18T00:51:49;-4.80;99.90
612;DHT22;293;53.888;11.464;2022-12-18T00:54:16;-4.80;99.90
612;DHT22;293;53.888;11.464;2022-12-18T00:56:43;-4.80;99.90
612;DHT22;293;53.888;11.464;2022-12-18T00:59:10;-4.80;99.90
612;DHT22;293;53.888;11.464;2022-12-18T01:01:39;-4.80;99.90
612;DHT22;293;53.888;11.464;2022-12-18T01:04:06;-4.70;99.90
612;DHT22;293;53.888;11.464;2022-12-18T01:06:34;-4.70;99.90
612;DHT22;293;53.888;11.464;2022-12-18T01:09:01;-4.60;99.90
612;DHT22;293;53.888;11.464;2022-12-18T01:11:28;-4.60;99.90
612;DHT22;293;53.888;11.464;2022-12-18T01:13:55;-4.60;99.90
612;DHT22;293;53.888;11.464;2022-12-18T01:16:23;-4.60;99.90
612;DHT22;293;53.888;11.464;2022-12-18T01:18:53;-4.70;99.90
612;DHT22;293;53.888;11.464;2022-12-18T01:21:21;-4.70;99.90
612;DHT22;293;53.888;11.464;2022-12-18T01:23:51;-4.70;99.90
612;DHT22;293;53.888;11.464;2022-12-18T01:26:19;-4.70;99.90
612;DHT22;293;53.888;11.464;2022-12-18T01:28:46;-4.80;99.90
612;DHT22;293;53.888;11.464;2022-12-18T01:31:15;-4.80;99.90
612;DHT22;293;53.888;11.464;2022-12-18T01:33:43;-4.80;99.90
612;DHT22;293;53.888;11.464;2022-12-18T01:36:16;-4.80;99.90
612;DHT22;293;53.888;11.464;2022-12-18T01:38:44;-4.70;99.90
612;DHT22;293;53.888;11.464;2022-12-18T01:41:11;-4.80;99.90
612;DHT22;293;53.888;11.464;2022-12-18T01:43:47;-4.80;99.90
612;DHT22;293;53.888;11.464;2022-12-18T01:46:14;-4.80;99.90
612;DHT22;293;53.888;11.464;2022-12-18T01:48:41;-4.80;99.90
612;DHT22;293;53.888;11.464;2022-12-18T01:51:10;-4.80;99.90
612;DHT22;293;53.888;11.464;2022-12-18T01:53:41;-4.80;99.90
612;DHT22;293;53.888;11.464;2022-12-18T01:56:11;-4.80;99.90
612;DHT22;293;53.888;11.464;2022-12-18T01:58:44;-4.80;99.90
612;DHT22;293;53.888;11.464;2022-12-18T02:01:13;-4.90;99.90
612;DHT22;293;53.888;11.464;2022-12-18T02:03:41;-4.90;99.90
612;DHT22;293;53.888;11.464;2022-12-18T02:06:13;-4.90;99.90
612;DHT22;293;53.888;11.464;2022-12-18T02:08:51;-4.90;99.90
612;DHT22;293;53.888;11.464;2022-12-18T02:11:29;-4.80;99.90
612;DHT22;293;53.888;11.464;2022-12-18T02:14:02;-4.80;99.90
612;DHT22;293;53.888;11.464;2022-12-18T02:16:36;-4.80;99.90
612;DHT22;293;53.888;11.464;2022-12-18T02:19:14;-4.80;99.90
612;DHT22;293;53.888;11.464;2022-12-18T02:21:49;-4.70;99.90
612;DHT22;293;53.888;11.464;2022-12-18T02:24:29;-4.80;99.90
612;DHT22;293;53.888;11.464;2022-12-18T02:27:04;-4.70;99.90
612;DHT22;293;53.888;11.464;2022-12-18T02:29:35;-4.70;99.90
612;DHT22;293;53.888;11.464;2022-12-18T02:32:08;-4.80;99.90
612;DHT22;293;53.888;11.464;2022-12-18T02:34:38;-4.80;99.90
612;DHT22;293;53.888;11.464;2022-12-18T02:37:08;-4.70;99.90
612;DHT22;293;53.888;11.464;2022-12-18T02:39:38;-4.70;99.90
612;DHT22;293;53.888;11.464;2022-12-18T02:42:07;-4.60;99.90
612;DHT22;293;53.888;11.464;2022-12-18T02:44:35;-4.60;99.90
612;DHT22;293;53.888;11.464;2022-12-18T02:47:02;-4.60;99.90
612;DHT22;293;53.888;11.464;2022-12-18T02:49:34;-4.50;99.90
612;DHT22;293;53.888;11.464;2022-12-18T02:52:11;-4.60;99.90
612;DHT22;293;53.888;11.464;2022-12-18T02:54:55;-4.60;99.90
612;DHT22;293;53.888;11.464;2022-12-18T02:57:33;-4.60;99.90
612;DHT22;293;53.888;11.464;2022-12-18T03:00:04;-4.60;99.90
612;DHT22;293;53.888;11.464;2022-12-18T03:02:37;-4.60;99.90
612;DHT22;293;53.888;11.464;2022-12-18T03:05:12;-4.60;99.90
612;DHT22;293;53.888;11.464;2022-12-18T03:07:44;-4.60;99.90
612;DHT22;293;53.888;11.464;2022-12-18T03:10:16;-4.70;99.90
612;DHT22;293;53.888;11.464;2022-12-18T03:12:49;-4.60;99.90
612;DHT22;293;53.888;11.464;2022-12-18T03:15:22;-4.70;99.90
612;DHT22;293;53.888;11.464;2022-12-18T03:17:54;-4.60;99.90
612;DHT22;293;53.888;11.464;2022-12-18T03:20:25;-4.60;99.90
612;DHT22;293;53.888;11.464;2022-12-18T03:23:09;-4.60;99.90
612;DHT22;293;53.888;11.464;2022-12-18T03:25:40;-4.60;99.90
612;DHT22;293;53.888;11.464;2022-12-18T03:28:12;-4.70;99.90
612;DHT22;293;53.888;11.464;2022-12-18T03:30:41;-4.70;99.90
612;DHT22;293;53.888;11.464;2022-12-18T03:33:14;-4.70;99.90
612;DHT22;293;53.888;11.464;2022-12-18T03:35:45;-4.70;99.90
612;DHT22;293;53.888;11.464;2022-12-18T03:38:12;-4.70;99.90
612;DHT22;293;53.888;11.464;2022-12-18T03:40:45;-4.70;99.90
612;DHT22;293;53.888;11.464;2022-12-18T03:43:20;-4.80;99.90
612;DHT22;293;53.888;11.464;2022-12-18T03:45:54;-4.90;99.90
612;DHT22;293;53.888;11.464;2022-12-18T03:48:29;-4.90;99.90
612;DHT22;293;53.888;11.464;2022-12-18T03:51:00;-4.90;99.90
612;DHT22;293;53.888;11.464;2022-12-18T03:53:33;-4.90;99.90
612;DHT22;293;53.888;11.464;2022-12-18T03:56:02;-4.80;99.90
612;DHT22;293;53.888;11.464;2022-12-18T03:58:33;-4.80;99.90
612;DHT22;293;53.888;11.464;2022-12-18T04:01:03;-4.80;99.90
612;DHT22;293;53.888;11.464;2022-12-18T04:03:32;-4.90;99.90
612;DHT22;293;53.888;11.464;2022-12-18T04:06:01;-4.90;99.90
612;DHT22;293;53.888;11.464;2022-12-18T04:08:29;-4.90;99.90
612;DHT22;293;53.888;11.464;2022-12-18T04:10:56;-4.90;99.90
612;DHT22;293;53.888;11.464;2022-12-18T04:13:24;-4.90;99.90
612;DHT22;293;53.888;11.464;2022-12-18T04:15:52;-4.90;99.90
612;DHT22;293;53.888;11.464;2022-12-18T04:18:19;-5.00;99.90
612;DHT22;293;53.888;11.464;2022-12-18T04:20:46;-4.90;99.90
612;DHT22;293;53.888;11.464;2022-12-18T04:23:13;-5.00;99.90
612;DHT22;293;53.888;11.464;2022-12-18T04:25:40;-5.00;99.90
612;DHT22;293;53.888;11.464;2022-12-18T04:28:07;-5.00;99.90
612;DHT22;293;53.888;11.464;2022-12-18T04:30:34;-5.10;99.90
612;DHT22;293;53.888;11.464;2022-12-18T04:33:02;-5.10;99.90
612;DHT22;293;53.888;11.464;2022-12-18T04:35:29;-5.10;99.90
612;DHT22;293;53.888;11.464;2022-12-18T04:37:56;-5.10;99.90
612;DHT22;293;53.888;11.464;2022-12-18T04:40:23;-5.10;99.90
612;DHT22;293;53.888;11.464;2022-12-18T04:42:50;-5.10;99.90
612;DHT22;293;53.888;11.464;2022-12-18T04:45:17;-5.20;99.90
612;DHT22;293;53.888;11.464;2022-12-18T04:47:44;-5.20;99.90
612;DHT22;293;53.888;11.464;2022-12-18T04:50:12;-5.20;99.90
612;DHT22;293;53.888;11.464;2022-12-18T04:52:39;-5.20;99.90
612;DHT22;293;53.888;11.464;2022-12-18T04:55:06;-5.20;99.90
612;DHT22;293;53.888;11.464;2022-12-18T04:57:33;-5.30;99.90
612;DHT22;293;53.888;11.464;2022-12-18T05:00:00;-5.30;99.90
612;DHT22;293;53.888;11.464;2022-12-18T05:02:27;-5.30;99.90
612;DHT22;293;53.888;11.464;2022-12-18T05:04:54;-5.40;99.90
612;DHT22;293;53.888;11.464;2022-12-18T05:07:22;-5.40;99.90
612;DHT22;293;53.888;11.464;2022-12-18T05:09:49;-5.40;99.90
612;DHT22;293;53.888;11.464;2022-12-18T05:12:16;-5.40;99.90
612;DHT22;293;53.888;11.464;2022-12-18T05:14:42;-5.40;99.90
612;DHT22;293;53.888;11.464;2022-12-18T05:17:09;-5.40;99.90
612;DHT22;293;53.888;11.464;2022-12-18T05:19:37;-5.50;99.90
612;DHT22;293;53.888;11.464;2022-12-18T05:22:07;-5.40;99.90
612;DHT22;293;53.888;11.464;2022-12-18T05:24:36;-5.50;99.90
612;DHT22;293;53.888;11.464;2022-12-18T05:27:02;-5.50;99.90
612;DHT22;293;53.888;11.464;2022-12-18T05:29:30;-5.50;99.90
612;DHT22;293;53.888;11.464;2022-12-18T05:31:57;-5.50;99.90
612;DHT22;293;53.888;11.464;2022-12-18T05:34:23;-5.50;99.90
612;DHT22;293;53.888;11.464;2022-12-18T05:36:50;-5.50;99.90
612;DHT22;293;53.888;11.464;2022-12-18T05:39:17;-5.50;99.90
612;DHT22;293;53.888;11.464;2022-12-18T05:41:45;-5.60;99.90
612;DHT22;293;53.888;11.464;2022-12-18T05:44:12;-5.60;99.90
612;DHT22;293;53.888;11.464;2022-12-18T05:46:39;-5.60;99.90
612;DHT22;293;53.888;11.464;2022-12-18T05:49:06;-5.60;99.90
612;DHT22;293;53.888;11.464;2022-12-18T05:51:33;-5.70;99.90
612;DHT22;293;53.888;11.464;2022-12-18T05:54:00;-5.70;99.90
612;DHT22;293;53.888;11.464;2022-12-18T05:56:27;-5.70;99.90
612;DHT22;293;53.888;11.464;2022-12-18T05:58:55;-5.70;99.90
612;DHT22;293;53.888;11.464;2022-12-18T06:01:24;-5.80;99.90
612;DHT22;293;53.888;11.464;2022-12-18T06:03:51;-5.90;99.90
612;DHT22;293;53.888;11.464;2022-12-18T06:06:20;-5.90;99.90
612;DHT22;293;53.888;11.464;2022-12-18T06:08:48;-5.90;99.90
612;DHT22;293;53.888;11.464;2022-12-18T06:11:18;-5.80;99.90
612;DHT22;293;53.888;11.464;2022-12-18T06:13:45;-5.90;99.90
612;DHT22;293;53.888;11.464;2022-12-18T06:16:13;-5.90;99.90
612;DHT22;293;53.888;11.464;2022-12-18T06:18:40;-5.90;99.90
612;DHT22;293;53.888;11.464;2022-12-18T06:21:07;-5.90;99.90
612;DHT22;293;53.888;11.464;2022-12-18T06:23:34;-5.80;99.90
612;DHT22;293;53.888;11.464;2022-12-18T06:26:04;-5.80;99.90
612;DHT22;293;53.888;11.464;2022-12-18T06:28:31;-5.90;99.90
612;DHT22;293;53.888;11.464;2022-12-18T06:30:58;-5.80;99.90
612;DHT22;293;53.888;11.464;2022-12-18T06:33:27;-5.80;99.90
612;DHT22;293;53.888;11.464;2022-12-18T06:35:54;-5.80;99.90
612;DHT22;293;53.888;11.464;2022-12-18T06:38:25;-5.80;99.90
612;DHT22;293;53.888;11.464;2022-12-18T06:40:52;-5.80;99.90
612;DHT22;293;53.888;11.464;2022-12-18T06:43:19;-5.80;99.90
612;DHT22;293;53.888;11.464;2022-12-18T06:45:46;-5.80;99.90
612;DHT22;293;53.888;11.464;2022-12-18T06:48:18;-5.80;99.90
612;DHT22;293;53.888;11.464;2022-12-18T06:50:46;-5.80;99.90
612;DHT22;293;53.888;11.464;2022-12-18T06:53:13;-5.80;99.90
612;DHT22;293;53.888;11.464;2022-12-18T06:55:40;-5.70;99.90
612;DHT22;293;53.888;11.464;2022-12-18T06:58:07;-5.80;99.90
612;DHT22;293;53.888;11.464;2022-12-18T07:00:34;-5.80;99.90
612;DHT22;293;53.888;11.464;2022-12-18T07:03:01;-5.80;99.90
612;DHT22;293;53.888;11.464;2022-12-18T07:05:28;-5.80;99.90
612;DHT22;293;53.888;11.464;2022-12-18T07:07:57;-5.80;99.90
612;DHT22;293;53.888;11.464;2022-12-18T07:10:24;-5.80;99.90
612;DHT22;293;53.888;11.464;2022-12-18T07:12:50;-5.80;99.90
612;DHT22;293;53.888;11.464;2022-12-18T07:15:17;-5.90;99.90
612;DHT22;293;53.888;11.464;2022-12-18T07:17:44;-5.90;99.90
612;DHT22;293;53.888;11.464;2022-12-18T07:20:11;-5.90;99.90
612;DHT22;293;53.888;11.464;2022-12-18T07:22:38;-5.90;99.90
612;DHT22;293;53.888;11.464;2022-12-18T07:25:07;-5.90;99.90
612;DHT22;293;53.888;11.464;2022-12-18T07:27:34;-5.90;99.90
612;DHT22;293;53.888;11.464;2022-12-18T07:30:01;-6.00;99.90
612;DHT22;293;53.888;11.464;2022-12-18T07:32:28;-6.00;99.90
612;DHT22;293;53.888;11.464;2022-12-18T07:34:56;-6.00;99.90
612;DHT22;293;53.888;11.464;2022-12-18T07:38:55;-6.10;99.90
612;DHT22;293;53.888;11.464;2022-12-18T07:41:22;-6.10;99.90
612;DHT22;293;53.888;11.464;2022-12-18T07:43:49;-6.10;99.90
612;DHT22;293;53.888;11.464;2022-12-18T07:46:17;-6.20;99.90
612;DHT22;293;53.888;11.464;2022-12-18T07:48:44;-6.20;99.90
612;DHT22;293;53.888;11.464;2022-12-18T07:53:39;-6.20;99.90
612;DHT22;293;53.888;11.464;2022-12-18T07:56:09;-6.20;99.90
612;DHT22;293;53.888;11.464;2022-12-18T07:58:36;-6.10;99.90
612;DHT22;293;53.888;11.464;2022-12-18T08:01:04;-6.10;99.90
612;DHT22;293;53.888;11.464;2022-12-18T08:03:32;-6.10;99.90
612;DHT22;293;53.888;11.464;2022-12-18T08:06:00;-6.10;99.90
612;DHT22;293;53.888;11.464;2022-12-18T08:08:27;-6.10;99.90
612;DHT22;293;53.888;11.464;2022-12-18T08:10:54;-6.10;99.90
612;DHT22;293;53.888;11.464;2022-12-18T08:13:23;-6.10;99.90
612;DHT22;293;53.888;11.464;2022-12-18T08:15:56;-6.10;99.90
612;DHT22;293;53.888;11.464;2022-12-18T08:18:23;-6.10;99.90
612;DHT22;293;53.888;11.464;2022-12-18T08:20:50;-6.10;99.90
612;DHT22;293;53.888;11.464;2022-12-18T08:23:17;-6.00;99.90
612;DHT22;293;53.888;11.464;2022-12-18T08:25:44;-6.00;99.90
612;DHT22;293;53.888;11.464;2022-12-18T08:28:11;-6.00;99.90
612;DHT22;293;53.888;11.464;2022-12-18T08:30:39;-5.90;99.90
612;DHT22;293;53.888;11.464;2022-12-18T08:33:06;-5.80;99.90
612;DHT22;293;53.888;11.464;2022-12-18T08:35:35;-5.70;99.90
612;DHT22;293;53.888;11.464;2022-12-18T08:38:02;-5.70;99.90
612;DHT22;293;53.888;11.464;2022-12-18T08:40:29;-5.60;99.90
612;DHT22;293;53.888;11.464;2022-12-18T08:42:56;-5.60;99.90
612;DHT22;293;53.888;11.464;2022-12-18T08:45:41;-5.50;99.90
612;DHT22;293;53.888;11.464;2022-12-18T08:48:08;-5.40;99.90
612;DHT22;293;53.888;11.464;2022-12-18T08:50:35;-5.40;99.90
612;DHT22;293;53.888;11.464;2022-12-18T08:53:02;-5.30;99.90
612;DHT22;293;53.888;11.464;2022-12-18T08:55:29;-5.20;99.90
612;DHT22;293;53.888;11.464;2022-12-18T08:57:56;-5.20;99.90
612;DHT22;293;53.888;11.464;2022-12-18T09:00:23;-5.10;99.90
612;DHT22;293;53.888;11.464;2022-12-18T09:02:51;-5.00;99.90
612;DHT22;293;53.888;11.464;2022-12-18T09:05:18;-5.00;99.90
612;DHT22;293;53.888;11.464;2022-12-18T09:07:44;-5.00;99.90
612;DHT22;293;53.888;11.464;2022-12-18T09:10:11;-4.90;99.90
612;DHT22;293;53.888;11.464;2022-12-18T09:12:38;-4.90;99.90
612;DHT22;293;53.888;11.464;2022-12-18T09:15:06;-4.80;99.90
612;DHT22;293;53.888;11.464;2022-12-18T09:17:33;-4.70;99.90
612;DHT22;293;53.888;11.464;2022-12-18T09:20:01;-4.70;99.90
612;DHT22;293;53.888;11.464;2022-12-18T09:22:28;-4.60;99.90
612;DHT22;293;53.888;11.464;2022-12-18T09:24:55;-4.60;99.90
612;DHT22;293;53.888;11.464;2022-12-18T09:27:21;-4.50;99.90
612;DHT22;293;53.888;11.464;2022-12-18T09:29:48;-4.50;99.90
612;DHT22;293;53.888;11.464;2022-12-18T09:32:15;-4.40;99.90
612;DHT22;293;53.888;11.464;2022-12-18T09:34:42;-4.40;99.90
612;DHT22;293;53.888;11.464;2022-12-18T09:37:10;-4.40;99.90
612;DHT22;293;53.888;11.464;2022-12-18T09:39:38;-4.40;99.90
612;DHT22;293;53.888;11.464;2022-12-18T09:42:05;-4.40;99.90
612;DHT22;293;53.888;11.464;2022-12-18T09:44:35;-4.30;99.90
612;DHT22;293;53.888;11.464;2022-12-18T09:47:09;-4.40;99.90
612;DHT22;293;53.888;11.464;2022-12-18T09:49:42;-4.60;99.90
612;DHT22;293;53.888;11.464;2022-12-18T09:52:14;-4.20;99.90
612;DHT22;293;53.888;11.464;2022-12-18T09:54:44;-4.20;99.90
612;DHT22;293;53.888;11.464;2022-12-18T09:57:15;-4.20;99.90
612;DHT22;293;53.888;11.464;2022-12-18T09:59:47;-4.20;99.90
612;DHT22;293;53.888;11.464;2022-12-18T10:02:18;-4.10;99.90
612;DHT22;293;53.888;11.464;2022-12-18T10:07:47;-4.00;99.90
612;DHT22;293;53.888;11.464;2022-12-18T10:10:23;-3.90;99.90
612;DHT22;293;53.888;11.464;2022-12-18T10:12:57;-3.90;99.90
612;DHT22;293;53.888;11.464;2022-12-18T10:15:32;-3.80;99.90
612;DHT22;293;53.888;11.464;2022-12-18T10:18:06;-3.80;99.90
612;DHT22;293;53.888;11.464;2022-12-18T10:20:42;-3.90;99.90
612;DHT22;293;53.888;11.464;2022-12-18T10:23:17;-3.80;99.90
612;DHT22;293;53.888;11.464;2022-12-18T10:25:53;-3.80;99.90
612;DHT22;293;53.888;11.464;2022-12-18T10:28:23;-3.80;99.90
612;DHT22;293;53.888;11.464;2022-12-18T10:30:50;-3.80;99.90
612;DHT22;293;53.888;11.464;2022-12-18T10:33:18;-3.80;99.90
612;DHT22;293;53.888;11.464;2022-12-18T10:35:47;-3.70;99.90
612;DHT22;293;53.888;11.464;2022-12-18T10:38:23;-3.70;99.90
612;DHT22;293;53.888;11.464;2022-12-18T10:40:52;-3.70;99.90
612;DHT22;293;53.888;11.464;2022-12-18T10:43:21;-3.80;99.90
612;DHT22;293;53.888;11.464;2022-12-18T10:46:04;-3.80;99.90
612;DHT22;293;53.888;11.464;2022-12-18T10:48:33;-3.80;99.90
612;DHT22;293;53.888;11.464;2022-12-18T10:51:02;-3.80;99.90
612;DHT22;293;53.888;11.464;2022-12-18T10:53:32;-3.60;99.90
612;DHT22;293;53.888;11.464;2022-12-18T10:55:59;-3.70;99.90
612;DHT22;293;53.888;11.464;2022-12-18T10:58:28;-3.70;99.90
612;DHT22;293;53.888;11.464;2022-12-18T11:01:08;-3.70;99.90
612;DHT22;293;53.888;11.464;2022-12-18T11:03:37;-3.60;99.90
612;DHT22;293;53.888;11.464;2022-12-18T11:06:07;-3.60;99.90
612;DHT22;293;53.888;11.464;2022-12-18T11:08:36;-3.50;99.90
612;DHT22;293;53.888;11.464;2022-12-18T11:11:07;-3.40;99.90
612;DHT22;293;53.888;11.464;2022-12-18T11:13:34;-3.30;99.90
612;DHT22;293;53.888;11.464;2022-12-18T11:16:01;-3.20;99.90
612;DHT22;293;53.888;11.464;2022-12-18T11:18:29;-3.20;99.90
612;DHT22;293;53.888;11.464;2022-12-18T11:20:58;-3.10;99.90
612;DHT22;293;53.888;11.464;2022-12-18T11:23:27;-3.00;99.90
612;DHT22;293;53.888;11.464;2022-12-18T11:25:57;-2.90;99.90
612;DHT22;293;53.888;11.464;2022-12-18T11:28:36;-2.90;99.90
612;DHT22;293;53.888;11.464;2022-12-18T11:31:21;-2.90;99.90
612;DHT22;293;53.888;11.464;2022-12-18T11:33:56;-2.70;99.90
612;DHT22;293;53.888;11.464;2022-12-18T11:36:29;-2.70;99.90
612;DHT22;293;53.888;11.464;2022-12-18T11:38:59;-2.70;99.90
612;DHT22;293;53.888;11.464;2022-12-18T11:41:34;-2.60;99.90
612;DHT22;293;53.888;11.464;2022-12-18T11:44:25;-2.50;99.90
612;DHT22;293;53.888;11.464;2022-12-18T11:46:56;-2.40;99.90
612;DHT22;293;53.888;11.464;2022-12-18T11:49:28;-2.50;99.90
612;DHT22;293;53.888;11.464;2022-12-18T11:52:00;-2.60;99.90
612;DHT22;293;53.888;11.464;2022-12-18T11:54:28;-2.60;99.90
612;DHT22;293;53.888;11.464;2022-12-18T11:57:03;-2.60;99.90
612;DHT22;293;53.888;11.464;2022-12-18T11:59:39;-2.50;99.90
612;DHT22;293;53.888;11.464;2022-12-18T12:02:28;-2.50;99.90
612;DHT22;293;53.888;11.464;2022-12-18T12:05:12;-2.50;99.90
612;DHT22;293;53.888;11.464;2022-12-18T12:07:45;-2.40;99.90
612;DHT22;293;53.888;11.464;2022-12-18T12:10:30;-2.40;99.90
612;DHT22;293;53.888;11.464;2022-12-18T12:13:15;-2.50;99.90
612;DHT22;293;53.888;11.464;2022-12-18T12:15:57;-2.60;99.90
612;DHT22;293;53.888;11.464;2022-12-18T12:18:33;-2.60;99.90
612;DHT22;293;53.888;11.464;2022-12-18T12:21:07;-2.70;99.90
612;DHT22;293;53.888;11.464;2022-12-18T12:23:41;-2.80;99.90
612;DHT22;293;53.888;11.464;2022-12-18T12:26:11;-2.80;99.90
612;DHT22;293;53.888;11.464;2022-12-18T12:29:00;-2.80;99.90
612;DHT22;293;53.888;11.464;2022-12-18T12:31:49;-2.80;99.90
612;DHT22;293;53.888;11.464;2022-12-18T12:34:23;-2.90;99.90
612;DHT22;293;53.888;11.464;2022-12-18T12:37:06;-2.90;99.90
612;DHT22;293;53.888;11.464;2022-12-18T12:39:39;-2.90;99.90
612;DHT22;293;53.888;11.464;2022-12-18T12:42:14;-2.90;99.90
612;DHT22;293;53.888;11.464;2022-12-18T12:45:05;-2.90;99.90
612;DHT22;293;53.888;11.464;2022-12-18T12:47:37;-2.80;99.90
612;DHT22;293;53.888;11.464;2022-12-18T12:50:11;-2.80;99.90
612;DHT22;293;53.888;11.464;2022-12-18T12:52:42;-2.80;99.90
612;DHT22;293;53.888;11.464;2022-12-18T12:55:15;-2.80;99.90
612;DHT22;293;53.888;11.464;2022-12-18T12:57:46;-2.80;99.90
612;DHT22;293;53.888;11.464;2022-12-18T13:00:17;-2.70;99.90
612;DHT22;293;53.888;11.464;2022-12-18T13:02:49;-2.70;99.90
612;DHT22;293;53.888;11.464;2022-12-18T13:05:23;-2.70;99.90
612;DHT22;293;53.888;11.464;2022-12-18T13:07:54;-2.70;99.90
612;DHT22;293;53.888;11.464;2022-12-18T13:10:30;-2.70;99.90
612;DHT22;293;53.888;11.464;2022-12-18T13:12:59;-2.70;99.90
612;DHT22;293;53.888;11.464;2022-12-18T13:15:34;-2.70;99.90
612;DHT22;293;53.888;11.464;2022-12-18T13:18:17;-2.70;99.90
612;DHT22;293;53.888;11.464;2022-12-18T13:20:46;-2.70;99.90
612;DHT22;293;53.888;11.464;2022-12-18T13:23:32;-2.70;99.90
612;DHT22;293;53.888;11.464;2022-12-18T13:26:27;-2.70;99.90
612;DHT22;293;53.888;11.464;2022-12-18T13:28:56;-2.80;99.90
612;DHT22;293;53.888;11.464;2022-12-18T13:31:59;-2.70;99.90
612;DHT22;293;53.888;11.464;2022-12-18T13:34:28;-2.70;99.90
612;DHT22;293;53.888;11.464;2022-12-18T13:36:57;-2.60;99.90
612;DHT22;293;53.888;11.464;2022-12-18T13:39:43;-2.60;99.90
612;DHT22;293;53.888;11.464;2022-12-18T13:42:37;-2.60;99.90
612;DHT22;293;53.888;11.464;2022-12-18T13:45:41;-2.60;99.90
612;DHT22;293;53.888;11.464;2022-12-18T13:48:18;-2.60;99.90
612;DHT22;293;53.888;11.464;2022-12-18T13:50:49;-2.60;99.90
612;DHT22;293;53.888;11.464;2022-12-18T13:53:21;-2.60;99.90
612;DHT22;293;53.888;11.464;2022-12-18T13:55:49;-2.60;99.90
612;DHT22;293;53.888;11.464;2022-12-18T13:58:17;-2.60;99.90
612;DHT22;293;53.888;11.464;2022-12-18T14:00:44;-2.60;99.90
612;DHT22;293;53.888;11.464;2022-12-18T14:03:22;-2.60;99.90
612;DHT22;293;53.888;11.464;2022-12-18T14:05:55;-2.70;99.90
612;DHT22;293;53.888;11.464;2022-12-18T14:08:24;-2.70;99.90
612;DHT22;293;53.888;11.464;2022-12-18T14:10:53;-2.70;99.90
612;DHT22;293;53.888;11.464;2022-12-18T14:13:24;-2.70;99.90
612;DHT22;293;53.888;11.464;2022-12-18T14:15:54;-2.80;99.90
612;DHT22;293;53.888;11.464;2022-12-18T14:18:24;-2.90;99.90
612;DHT22;293;53.888;11.464;2022-12-18T14:20:54;-2.90;99.90
612;DHT22;293;53.888;11.464;2022-12-18T14:23:31;-2.90;99.90
612;DHT22;293;53.888;11.464;2022-12-18T14:25:59;-3.00;99.90
612;DHT22;293;53.888;11.464;2022-12-18T14:28:26;-3.00;99.90
612;DHT22;293;53.888;11.464;2022-12-18T14:30:54;-3.00;99.90
612;DHT22;293;53.888;11.464;2022-12-18T14:33:25;-3.00;99.90
612;DHT22;293;53.888;11.464;2022-12-18T14:35:55;-3.10;99.90
612;DHT22;293;53.888;11.464;2022-12-18T14:38:25;-3.10;99.90
612;DHT22;293;53.888;11.464;2022-12-18T14:40:54;-3.10;99.90
612;DHT22;293;53.888;11.464;2022-12-18T14:43:21;-3.20;99.90
612;DHT22;293;53.888;11.464;2022-12-18T14:45:49;-3.30;99.90
612;DHT22;293;53.888;11.464;2022-12-18T14:48:18;-3.30;99.90
612;DHT22;293;53.888;11.464;2022-12-18T14:50:56;-3.30;99.90
612;DHT22;293;53.888;11.464;2022-12-18T14:53:32;-3.40;99.90
612;DHT22;293;53.888;11.464;2022-12-18T14:56:00;-3.30;99.90
612;DHT22;293;53.888;11.464;2022-12-18T14:58:27;-3.40;99.90
612;DHT22;293;53.888;11.464;2022-12-18T15:00:54;-3.40;99.90
612;DHT22;293;53.888;11.464;2022-12-18T15:03:21;-3.40;99.90
612;DHT22;293;53.888;11.464;2022-12-18T15:05:50;-3.50;99.90
612;DHT22;293;53.888;11.464;2022-12-18T15:08:30;-3.50;99.90
612;DHT22;293;53.888;11.464;2022-12-18T15:10:57;-3.50;99.90
612;DHT22;293;53.888;11.464;2022-12-18T15:13:24;-3.50;99.90
612;DHT22;293;53.888;11.464;2022-12-18T15:15:52;-3.60;99.90
612;DHT22;293;53.888;11.464;2022-12-18T15:18:23;-3.60;99.90
612;DHT22;293;53.888;11.464;2022-12-18T15:20:56;-3.70;99.90
612;DHT22;293;53.888;11.464;2022-12-18T15:23:26;-3.70;99.90
612;DHT22;293;53.888;11.464;2022-12-18T15:25:58;-3.70;99.90
612;DHT22;293;53.888;11.464;2022-12-18T15:28:34;-3.70;99.90
612;DHT22;293;53.888;11.464;2022-12-18T15:31:17;-3.70;99.90
612;DHT22;293;53.888;11.464;2022-12-18T15:34:05;-3.70;99.90
612;DHT22;293;53.888;11.464;2022-12-18T15:36:33;-3.70;99.90
612;DHT22;293;53.888;11.464;2022-12-18T15:39:02;-3.70;99.90
612;DHT22;293;53.888;11.464;2022-12-18T15:41:31;-3.80;99.90
612;DHT22;293;53.888;11.464;2022-12-18T15:43:59;-3.70;99.90
612;DHT22;293;53.888;11.464;2022-12-18T15:46:25;-3.70;99.90
612;DHT22;293;53.888;11.464;2022-12-18T15:48:54;-3.60;99.90
612;DHT22;293;53.888;11.464;2022-12-18T15:51:23;-3.60;99.90
612;DHT22;293;53.888;11.464;2022-12-18T15:53:55;-3.60;99.90
612;DHT22;293;53.888;11.464;2022-12-18T15:56:22;-3.60;99.90
612;DHT22;293;53.888;11.464;2022-12-18T15:59:10;-3.60;99.90
612;DHT22;293;53.888;11.464;2022-12-18T16:01:38;-3.60;99.90
612;DHT22;293;53.888;11.464;2022-12-18T16:04:06;-3.60;99.90
612;DHT22;293;53.888;11.464;2022-12-18T16:06:33;-3.70;99.90
612;DHT22;293;53.888;11.464;2022-12-18T16:09:01;-3.70;99.90
612;DHT22;293;53.888;11.464;2022-12-18T16:11:29;-3.70;99.90
612;DHT22;293;53.888;11.464;2022-12-18T16:14:13;-3.70;99.90
612;DHT22;293;53.888;11.464;2022-12-18T16:16:42;-3.80;99.90
612;DHT22;293;53.888;11.464;2022-12-18T16:19:09;-3.80;99.90
612;DHT22;293;53.888;11.464;2022-12-18T16:21:35;-3.80;99.90
612;DHT22;293;53.888;11.464;2022-12-18T16:24:04;-3.80;99.90
612;DHT22;293;53.888;11.464;2022-12-18T16:26:31;-3.70;99.90
612;DHT22;293;53.888;11.464;2022-12-18T16:28:58;-3.70;99.90
612;DHT22;293;53.888;11.464;2022-12-18T16:31:25;-3.80;99.90
612;DHT22;293;53.888;11.464;2022-12-18T16:34:10;-3.80;99.90
612;DHT22;293;53.888;11.464;2022-12-18T16:36:37;-3.80;99.90
612;DHT22;293;53.888;11.464;2022-12-18T16:39:05;-3.80;99.90
612;DHT22;293;53.888;11.464;2022-12-18T16:41:32;-3.80;99.90
612;DHT22;293;53.888;11.464;2022-12-18T16:43:59;-3.70;99.90
612;DHT22;293;53.888;11.464;2022-12-18T16:46:27;-3.80;99.90